createdAt,value
2022-08-24T00:01:57.346Z,23.02
2022-08-24T00:04:28.335Z,22.86
2022-08-24T00:06:58.903Z,22.90
2022-08-24T00:09:25.975Z,23.00
2022-08-24T00:12:13.962Z,22.90
2022-08-24T00:15:01.387Z,22.77
2022-08-24T00:17:48.064Z,22.81
2022-08-24T00:20:36.093Z,22.71
2022-08-24T00:23:22.903Z,22.66
2022-08-24T00:26:09.427Z,22.63
2022-08-24T00:28:37.107Z,22.63
2022-08-24T00:31:04.457Z,22.61
2022-08-24T00:33:34.755Z,22.59
2022-08-24T00:36:01.746Z,22.60
2022-08-24T00:38:28.975Z,22.64
2022-08-24T00:40:56.936Z,22.69
2022-08-24T00:43:26.282Z,22.75
2022-08-24T00:46:17.039Z,22.53
2022-08-24T00:48:48.444Z,22.53
2022-08-24T00:51:20.217Z,22.50
2022-08-24T00:54:05.104Z,22.56
2022-08-24T00:56:38.003Z,22.59
2022-08-24T00:59:09.034Z,22.55
2022-08-24T01:01:35.987Z,22.58
2022-08-24T01:04:03.558Z,22.65
2022-08-24T01:06:32.781Z,22.62
2022-08-24T01:09:00.478Z,22.59
2022-08-24T01:11:33.684Z,22.58
2022-08-24T01:14:03.022Z,22.62
2022-08-24T01:17:06.416Z,22.52
2022-08-24T01:19:39.279Z,22.43
2022-08-24T01:22:15.130Z,22.28
2022-08-24T01:24:42.364Z,22.20
2022-08-24T01:27:11.667Z,22.00
2022-08-24T01:29:38.979Z,22.01
2022-08-24T01:32:05.936Z,22.11
2022-08-24T01:34:32.855Z,22.14
2022-08-24T01:37:03.167Z,22.05
2022-08-24T01:39:34.153Z,22.02
2022-08-24T01:42:01.667Z,22.05
2022-08-24T01:44:34.509Z,21.88
2022-08-24T01:47:07.339Z,21.82
2022-08-24T01:49:38.133Z,21.70
2022-08-24T01:52:06.963Z,21.57
2022-08-24T01:54:33.915Z,21.57
2022-08-24T01:57:01.640Z,21.66
2022-08-24T01:59:29.996Z,21.66
2022-08-24T02:02:07.168Z,21.60
2022-08-24T02:04:36.148Z,21.63
2022-08-24T02:07:02.766Z,21.67
2022-08-24T02:09:32.755Z,21.63
2022-08-24T02:12:02.032Z,21.51
2022-08-24T02:14:34.503Z,21.51
2022-08-24T02:17:04.306Z,21.46
2022-08-24T02:19:31.676Z,21.42
2022-08-24T02:22:00.508Z,21.49
2022-08-24T02:24:28.414Z,21.51
2022-08-24T02:26:56.440Z,21.43
2022-08-24T02:29:23.806Z,21.43
2022-08-24T02:31:50.680Z,21.43
2022-08-24T02:34:17.936Z,21.45
2022-08-24T02:36:44.500Z,21.45
2022-08-24T02:39:11.632Z,21.48
2022-08-24T02:41:38.836Z,21.35
2022-08-24T02:44:07.080Z,21.30
2022-08-24T02:46:34.420Z,21.29
2022-08-24T02:49:10.348Z,21.24
2022-08-24T02:51:45.785Z,21.20
2022-08-24T02:54:21.310Z,21.33
2022-08-24T02:56:50.703Z,21.31
2022-08-24T02:59:18.879Z,21.29
2022-08-24T03:01:50.281Z,21.30
2022-08-24T03:04:19.536Z,21.29
2022-08-24T03:06:46.211Z,21.26
2022-08-24T03:09:14.004Z,21.25
2022-08-24T03:11:40.987Z,21.14
2022-08-24T03:14:11.785Z,21.16
2022-08-24T03:16:38.575Z,21.12
2022-08-24T03:19:05.731Z,21.10
2022-08-24T03:21:34.768Z,20.90
2022-08-24T03:24:01.860Z,20.88
2022-08-24T03:26:28.655Z,20.91
2022-08-24T03:28:56.224Z,20.81
2022-08-24T03:31:26.469Z,20.83
2022-08-24T03:33:53.037Z,20.87
2022-08-24T03:36:19.743Z,20.82
2022-08-24T03:38:46.236Z,20.80
2022-08-24T03:41:13.176Z,20.78
2022-08-24T03:43:47.321Z,20.71
2022-08-24T03:46:25.307Z,20.71
2022-08-24T03:48:54.716Z,20.70
2022-08-24T03:51:25.409Z,20.62
2022-08-24T03:53:53.967Z,20.63
2022-08-24T03:56:23.386Z,20.53
2022-08-24T03:58:50.400Z,20.61
2022-08-24T04:01:18.029Z,20.60
2022-08-24T04:03:46.831Z,20.57
2022-08-24T04:06:17.916Z,20.60
2022-08-24T04:08:45.380Z,20.53
2022-08-24T04:11:15.214Z,20.49
2022-08-24T04:13:45.082Z,20.47
2022-08-24T04:16:15.312Z,20.44
2022-08-24T04:18:42.843Z,20.40
2022-08-24T04:21:25.378Z,20.38
2022-08-24T04:23:55.112Z,20.33
2022-08-24T04:26:43.379Z,20.33
2022-08-24T04:29:15.359Z,20.33
2022-08-24T04:31:47.140Z,20.35
2022-08-24T04:34:16.189Z,20.28
2022-08-24T04:36:45.805Z,20.27
2022-08-24T04:39:13.629Z,20.13
2022-08-24T04:42:03.262Z,20.15
2022-08-24T04:44:33.878Z,20.18
2022-08-24T04:47:01.388Z,20.16
2022-08-24T04:49:28.618Z,20.15
2022-08-24T04:51:56.314Z,20.18
2022-08-24T04:54:23.054Z,20.12
2022-08-24T04:57:02.289Z,20.06
2022-08-24T04:59:28.885Z,20.06
2022-08-24T05:01:55.452Z,20.11
2022-08-24T05:04:22.455Z,20.14
2022-08-24T05:06:53.155Z,20.16
2022-08-24T05:09:21.971Z,20.15
2022-08-24T05:11:49.625Z,20.19
2022-08-24T05:14:20.598Z,20.23
2022-08-24T05:16:52.774Z,20.20
2022-08-24T05:19:20.192Z,20.22
2022-08-24T05:21:47.496Z,20.23
2022-08-24T05:24:14.289Z,20.20
2022-08-24T05:26:41.068Z,20.25
2022-08-24T05:29:09.130Z,20.25
2022-08-24T05:31:50.213Z,20.24
2022-08-24T05:34:17.946Z,20.30
2022-08-24T05:36:45.524Z,20.35
2022-08-24T05:39:21.192Z,20.39
2022-08-24T05:41:54.088Z,20.45
2022-08-24T05:44:30.766Z,20.50
2022-08-24T05:47:01.358Z,20.55
2022-08-24T05:49:28.994Z,20.65
2022-08-24T05:51:55.500Z,20.61
2022-08-24T05:54:23.466Z,20.62
2022-08-24T05:56:57.178Z,20.63
2022-08-24T05:59:24.114Z,20.70
2022-08-24T06:01:53.392Z,20.77
2022-08-24T06:04:20.222Z,20.82
2022-08-24T06:06:48.587Z,20.95
2022-08-24T06:09:16.252Z,20.99
2022-08-24T06:11:43.083Z,21.10
2022-08-24T06:14:17.189Z,21.09
2022-08-24T06:16:56.818Z,21.16
2022-08-24T06:19:24.171Z,21.19
2022-08-24T06:21:53.227Z,21.32
2022-08-24T06:25:00.678Z,21.27
2022-08-24T06:27:28.764Z,21.36
2022-08-24T06:30:01.524Z,21.44
2022-08-24T06:32:46.741Z,21.46
2022-08-24T06:35:31.057Z,21.53
2022-08-24T06:37:57.883Z,21.62
2022-08-24T06:40:25.827Z,21.65
2022-08-24T06:42:52.810Z,21.74
2022-08-24T06:45:33.616Z,21.83
2022-08-24T06:48:00.841Z,21.94
2022-08-24T06:50:28.331Z,22.11
2022-08-24T06:52:56.267Z,22.20
2022-08-24T06:55:25.126Z,22.18
2022-08-24T06:57:52.672Z,22.23
2022-08-24T07:00:19.950Z,22.32
2022-08-24T07:02:47.349Z,22.49
2022-08-24T07:05:14.454Z,22.46
2022-08-24T07:07:59.901Z,22.61
2022-08-24T07:10:28.066Z,22.64
2022-08-24T07:12:55.649Z,22.85
2022-08-24T07:15:23.228Z,22.93
2022-08-24T07:18:01.179Z,23.00
2022-08-24T07:20:30.420Z,23.00
2022-08-24T07:23:15.213Z,23.11
2022-08-24T07:25:46.233Z,23.12
2022-08-24T07:28:15.940Z,23.22
2022-08-24T07:30:44.019Z,23.46
2022-08-24T07:33:12.955Z,23.47
2022-08-24T07:35:40.953Z,23.42
2022-08-24T07:38:08.634Z,23.39
2022-08-24T07:40:55.804Z,23.57
2022-08-24T07:43:23.960Z,23.71
2022-08-24T07:45:51.713Z,23.78
2022-08-24T07:48:19.248Z,23.99
2022-08-24T07:50:46.826Z,23.99
2022-08-24T07:53:16.329Z,24.20
2022-08-24T07:55:54.029Z,24.27
2022-08-24T07:58:20.705Z,24.41
2022-08-24T08:00:48.817Z,24.54
2022-08-24T08:03:15.831Z,24.38
2022-08-24T08:05:43.957Z,24.53
2022-08-24T08:08:11.902Z,24.69
2022-08-24T08:10:40.587Z,25.05
2022-08-24T08:13:07.616Z,25.29
2022-08-24T08:15:37.327Z,25.43
2022-08-24T08:18:09.582Z,25.55
2022-08-24T08:20:40.632Z,25.68
2022-08-24T08:23:27.006Z,25.65
2022-08-24T08:26:02.503Z,25.97
2022-08-24T08:28:43.096Z,25.94
2022-08-24T08:31:10.629Z,26.08
2022-08-24T08:34:05.226Z,26.14
2022-08-24T08:36:32.868Z,26.26
2022-08-24T08:39:01.252Z,26.31
2022-08-24T08:42:00.450Z,26.38
2022-08-24T08:44:50.797Z,26.66
2022-08-24T08:47:43.729Z,26.90
2022-08-24T08:50:33.620Z,27.03
2022-08-24T08:53:30.002Z,27.40
2022-08-24T08:56:23.695Z,27.18
2022-08-24T08:59:15.238Z,27.20
2022-08-24T09:02:26.605Z,27.02
2022-08-24T09:05:35.391Z,27.16
2022-08-24T09:08:20.313Z,27.30
2022-08-24T09:11:19.865Z,27.47
2022-08-24T09:14:13.762Z,27.57
2022-08-24T09:16:58.697Z,28.15
2022-08-24T09:19:40.860Z,28.64
2022-08-24T09:22:10.846Z,28.67
2022-08-24T09:24:52.853Z,28.11
2022-08-24T09:27:54.739Z,28.34
2022-08-24T09:30:29.711Z,28.76
2022-08-24T09:33:15.228Z,28.76
2022-08-24T09:35:51.703Z,29.20
2022-08-24T09:38:29.692Z,29.30
2022-08-24T09:41:05.740Z,29.36
2022-08-24T09:44:13.194Z,29.96
2022-08-24T09:46:59.614Z,30.02
2022-08-24T09:49:32.272Z,30.12
2022-08-24T09:52:16.341Z,30.05
2022-08-24T09:54:55.761Z,30.35
2022-08-24T09:57:59.922Z,30.52
2022-08-24T10:00:39.550Z,30.60
2022-08-24T10:03:16.094Z,30.66
2022-08-24T10:06:07.450Z,31.16
2022-08-24T10:08:57.387Z,31.39
2022-08-24T10:11:36.691Z,31.30
2022-08-24T10:14:05.801Z,31.58
2022-08-24T10:16:43.663Z,30.80
2022-08-24T10:19:39.606Z,31.49
2022-08-24T10:22:16.793Z,31.43
2022-08-24T10:24:55.284Z,31.54
2022-08-24T10:27:42.856Z,32.25
2022-08-24T10:30:47.585Z,32.46
2022-08-24T10:33:26.276Z,32.11
2022-08-24T10:36:01.851Z,32.64
2022-08-24T10:38:50.660Z,33.25
2022-08-24T10:41:48.592Z,33.04
2022-08-24T10:44:42.053Z,33.24
2022-08-24T10:47:28.539Z,33.00
2022-08-24T10:50:30.953Z,32.50
2022-08-24T10:53:17.276Z,33.34
2022-08-24T10:55:44.288Z,33.13
2022-08-24T10:58:37.679Z,33.13
2022-08-24T11:01:21.232Z,33.36
2022-08-24T11:04:12.520Z,33.32
2022-08-24T11:07:03.143Z,33.37
2022-08-24T11:10:01.847Z,33.07
2022-08-24T11:12:43.286Z,33.13
2022-08-24T11:15:28.271Z,33.99
2022-08-24T11:18:01.094Z,33.37
2022-08-24T11:20:49.235Z,33.42
2022-08-24T11:23:19.660Z,33.90
2022-08-24T11:26:01.839Z,34.15
2022-08-24T11:28:48.551Z,34.51
2022-08-24T11:31:40.398Z,34.24
2022-08-24T11:34:17.338Z,34.14
2022-08-24T11:36:44.537Z,34.77
2022-08-24T11:39:14.250Z,35.48
2022-08-24T11:42:01.925Z,35.41
2022-08-24T11:44:39.198Z,35.40
2022-08-24T11:47:31.044Z,35.14
2022-08-24T11:50:06.866Z,35.62
2022-08-24T11:52:52.964Z,35.85
2022-08-24T11:55:46.741Z,35.70
2022-08-24T11:58:19.847Z,36.31
2022-08-24T12:01:07.009Z,36.00
2022-08-24T12:03:39.371Z,35.99
2022-08-24T12:06:34.015Z,36.55
2022-08-24T12:09:09.291Z,36.22
2022-08-24T12:11:50.128Z,36.92
2022-08-24T12:14:20.414Z,37.43
2022-08-24T12:16:58.988Z,37.35
2022-08-24T12:19:36.817Z,37.15
2022-08-24T12:22:08.369Z,37.47
2022-08-24T12:24:48.838Z,37.31
2022-08-24T12:27:24.270Z,36.93
2022-08-24T12:30:05.569Z,37.94
2022-08-24T12:32:40.842Z,37.92
2022-08-24T12:35:11.305Z,38.01
2022-08-24T12:37:43.900Z,37.32
2022-08-24T12:40:16.779Z,37.20
2022-08-24T12:42:52.175Z,37.16
2022-08-24T12:45:21.715Z,36.65
2022-08-24T12:48:19.193Z,37.69
2022-08-24T13:04:41.503Z,38.27
2022-08-24T13:07:40.096Z,38.51
2022-08-24T13:10:52.654Z,38.17
2022-08-24T13:13:48.711Z,38.51
2022-08-24T13:16:57.564Z,38.44
2022-08-24T13:19:28.232Z,38.55
2022-08-24T13:22:01.404Z,38.90
2022-08-24T13:24:27.878Z,38.45
2022-08-24T13:27:21.877Z,38.85
2022-08-24T13:30:04.866Z,38.53
2022-08-24T13:32:46.537Z,39.17
2022-08-24T13:35:35.321Z,38.57
2022-08-24T13:38:42.727Z,39.24
2022-08-24T13:41:34.544Z,38.89
2022-08-24T13:44:19.931Z,39.73
2022-08-24T13:46:57.403Z,39.97
2022-08-24T13:50:02.403Z,39.56
2022-08-24T13:53:08.261Z,39.41
2022-08-24T13:55:53.661Z,40.40
2022-08-24T13:58:33.452Z,39.52
2022-08-24T14:01:18.376Z,40.38
2022-08-24T14:04:10.297Z,39.73
2022-08-24T14:06:50.810Z,39.93
2022-08-24T14:09:35.911Z,40.69
2022-08-24T14:12:31.902Z,41.00
2022-08-24T14:15:17.269Z,39.57
2022-08-24T14:17:55.034Z,39.97
2022-08-24T14:20:50.996Z,41.26
2022-08-24T14:23:17.417Z,40.27
2022-08-24T14:25:45.566Z,41.80
2022-08-24T14:28:28.131Z,41.62
2022-08-24T14:31:13.225Z,41.90
2022-08-24T14:34:06.855Z,41.70
2022-08-24T14:36:48.140Z,41.75
2022-08-24T14:39:50.997Z,41.71
2022-08-24T14:42:21.816Z,42.51
2022-08-24T14:45:04.455Z,42.54
2022-08-24T14:47:41.213Z,41.92
2022-08-24T14:50:17.254Z,41.47
2022-08-24T14:53:09.673Z,40.54
2022-08-24T14:56:02.827Z,41.40
2022-08-24T14:58:45.934Z,42.23
2022-08-24T15:01:36.498Z,41.46
2022-08-24T15:04:36.160Z,42.30
2022-08-24T15:07:31.512Z,42.62
2022-08-24T15:10:00.985Z,42.40
2022-08-24T15:12:35.952Z,43.08
2022-08-24T15:15:02.472Z,42.44
2022-08-24T15:17:50.415Z,42.15
2022-08-24T15:20:25.511Z,41.96
2022-08-24T15:22:58.229Z,42.50
2022-08-24T15:25:49.875Z,41.66
2022-08-24T15:28:29.351Z,42.44
2022-08-24T15:31:00.473Z,41.14
2022-08-24T15:33:29.990Z,41.42
2022-08-24T15:36:15.891Z,41.93
2022-08-24T15:38:43.701Z,40.55
2022-08-24T15:41:16.155Z,41.54
2022-08-24T15:44:04.348Z,41.92
2022-08-24T15:46:45.347Z,42.53
2022-08-24T15:49:28.610Z,42.65
2022-08-24T15:52:02.225Z,42.42
2022-08-24T15:54:40.983Z,42.50
2022-08-24T15:57:24.498Z,41.61
2022-08-24T15:59:54.501Z,41.15
2022-08-24T16:02:33.102Z,41.37
2022-08-24T16:05:01.845Z,41.21
2022-08-24T16:07:57.003Z,41.42
2022-08-24T16:10:46.981Z,41.85
2022-08-24T16:13:24.643Z,41.55
2022-08-24T16:16:03.919Z,41.90
2022-08-24T16:18:45.930Z,41.98
2022-08-24T16:21:22.391Z,42.57
2022-08-24T16:24:01.377Z,42.26
2022-08-24T16:26:53.474Z,40.97
2022-08-24T16:29:38.275Z,41.01
2022-08-24T16:32:11.249Z,41.00
2022-08-24T16:34:50.581Z,41.27
2022-08-24T16:37:18.262Z,42.25
2022-08-24T16:39:46.536Z,41.96
2022-08-24T16:42:27.834Z,41.35
2022-08-24T16:44:55.811Z,41.72
2022-08-24T16:47:23.759Z,41.81
2022-08-24T16:49:50.562Z,42.56
2022-08-24T16:52:18.510Z,41.23
2022-08-24T16:54:45.883Z,41.02
2022-08-24T16:57:19.443Z,39.73
2022-08-24T16:59:51.013Z,40.19
2022-08-24T17:02:20.430Z,40.13
2022-08-24T17:04:47.111Z,39.16
2022-08-24T17:07:17.391Z,39.92
2022-08-24T17:09:47.108Z,39.50
2022-08-24T17:12:14.714Z,39.37
2022-08-24T17:14:41.493Z,38.51
2022-08-24T17:17:12.107Z,38.08
2022-08-24T17:19:39.052Z,37.71
2022-08-24T17:22:16.021Z,37.03
2022-08-24T17:24:44.322Z,36.83
2022-08-24T17:27:12.061Z,36.71
2022-08-24T17:29:38.800Z,36.38
2022-08-24T17:32:06.534Z,35.61
2022-08-24T17:34:33.188Z,35.47
2022-08-24T17:37:03.336Z,35.24
2022-08-24T17:39:31.725Z,35.16
2022-08-24T17:41:58.539Z,34.53
2022-08-24T17:44:31.938Z,34.41
2022-08-24T17:47:00.801Z,33.91
2022-08-24T17:49:27.783Z,34.28
2022-08-24T17:51:55.104Z,34.31
2022-08-24T17:54:22.449Z,33.92
2022-08-24T17:56:50.709Z,33.86
2022-08-24T17:59:25.606Z,33.89
2022-08-24T18:01:55.283Z,33.72
2022-08-24T18:04:27.697Z,33.40
2022-08-24T18:06:56.372Z,33.28
2022-08-24T18:09:42.500Z,33.31
2022-08-24T18:12:09.543Z,33.32
2022-08-24T18:14:36.459Z,32.94
2022-08-24T18:17:07.321Z,32.93
2022-08-24T18:19:35.996Z,32.80
2022-08-24T18:22:04.375Z,32.70
2022-08-24T18:24:32.806Z,32.60
2022-08-24T18:27:10.350Z,32.49
2022-08-24T18:29:40.569Z,32.39
2022-08-24T18:32:09.459Z,32.34
2022-08-24T18:34:37.896Z,32.27
2022-08-24T18:37:04.868Z,32.10
2022-08-24T18:39:31.491Z,31.91
2022-08-24T18:42:01.014Z,31.70
2022-08-24T18:44:31.613Z,31.43
2022-08-24T18:46:59.837Z,31.39
2022-08-24T18:49:26.913Z,31.14
2022-08-24T18:51:54.315Z,31.04
2022-08-24T18:54:24.670Z,30.94
2022-08-24T18:56:52.169Z,30.85
2022-08-24T18:59:19.951Z,30.64
2022-08-24T19:02:07.566Z,30.58
2022-08-24T19:04:39.613Z,30.39
2022-08-24T19:07:06.523Z,30.40
2022-08-24T19:09:34.674Z,30.14
2022-08-24T19:12:03.456Z,29.96
2022-08-24T19:14:30.800Z,29.87
2022-08-24T19:16:57.683Z,29.90
2022-08-24T19:19:24.891Z,29.71
2022-08-24T19:21:52.209Z,29.46
2022-08-24T19:24:24.577Z,29.37
2022-08-24T19:26:51.170Z,29.31
2022-08-24T19:29:38.955Z,29.03
2022-08-24T19:32:10.098Z,29.06
2022-08-24T19:34:47.223Z,28.85
2022-08-24T19:37:14.336Z,28.91
2022-08-24T19:39:41.141Z,28.72
2022-08-24T19:42:10.969Z,28.54
2022-08-24T19:44:56.811Z,28.29
2022-08-24T19:47:24.115Z,28.11
2022-08-24T19:49:50.956Z,27.92
2022-08-24T19:52:18.560Z,27.93
2022-08-24T19:54:47.497Z,28.06
2022-08-24T19:57:35.191Z,27.93
2022-08-24T20:00:33.593Z,27.91
2022-08-24T20:03:03.143Z,27.85
2022-08-24T20:05:29.937Z,27.85
2022-08-24T20:07:58.034Z,27.77
2022-08-24T20:10:24.903Z,27.60
2022-08-24T20:12:52.010Z,27.65
2022-08-24T20:15:19.892Z,27.48
2022-08-24T20:17:46.851Z,27.14
2022-08-24T20:20:17.307Z,27.15
2022-08-24T20:22:44.337Z,27.25
2022-08-24T20:25:11.370Z,27.00
2022-08-24T20:27:38.784Z,26.88
2022-08-24T20:30:07.006Z,26.62
2022-08-24T20:32:34.154Z,26.69
2022-08-24T20:35:01.690Z,26.64
2022-08-24T20:37:30.472Z,26.52
2022-08-24T20:39:57.408Z,26.39
2022-08-24T20:42:26.536Z,26.41
2022-08-24T20:44:54.628Z,26.42
2022-08-24T20:47:22.393Z,26.22
2022-08-24T20:49:49.323Z,26.18
2022-08-24T20:52:16.410Z,26.21
2022-08-24T20:54:43.139Z,26.13
2022-08-24T20:57:14.587Z,26.13
2022-08-24T20:59:41.400Z,25.81
2022-08-24T21:02:08.190Z,25.74
2022-08-24T21:04:34.655Z,25.74
2022-08-24T21:07:01.596Z,25.64
2022-08-24T21:09:28.355Z,25.67
2022-08-24T21:11:54.816Z,25.55
2022-08-24T21:14:21.742Z,25.55
2022-08-24T21:16:48.730Z,25.54
2022-08-24T21:19:18.798Z,25.41
2022-08-24T21:21:46.855Z,25.46
2022-08-24T21:24:15.472Z,25.36
2022-08-24T21:26:42.570Z,25.21
2022-08-24T21:29:09.823Z,24.96
2022-08-24T21:31:37.675Z,25.08
2022-08-24T21:34:23.299Z,25.09
2022-08-24T21:36:52.587Z,25.00
2022-08-24T21:39:21.134Z,24.94
2022-08-24T21:41:47.607Z,24.87
2022-08-24T21:44:14.392Z,24.68
2022-08-24T21:46:41.002Z,24.70
2022-08-24T21:49:12.056Z,24.73
2022-08-24T21:51:39.634Z,24.85
2022-08-24T21:54:06.070Z,24.82
2022-08-24T21:56:34.215Z,24.74
2022-08-24T21:59:04.054Z,24.60
2022-08-24T22:01:30.545Z,24.69
2022-08-24T22:04:01.419Z,24.59
2022-08-24T22:06:31.600Z,24.53
2022-08-24T22:08:58.891Z,24.50
2022-08-24T22:11:25.712Z,24.51
2022-08-24T22:13:53.955Z,24.44
2022-08-24T22:16:22.157Z,24.46
2022-08-24T22:18:49.082Z,24.45
2022-08-24T22:21:19.036Z,24.36
2022-08-24T22:23:46.607Z,24.43
2022-08-24T22:26:13.194Z,24.22
2022-08-24T22:28:42.197Z,24.20
2022-08-24T22:31:21.305Z,24.18
2022-08-24T22:33:49.699Z,24.19
2022-08-24T22:36:17.300Z,24.10
2022-08-24T22:38:44.499Z,24.10
2022-08-24T22:41:11.435Z,24.04
2022-08-24T22:43:56.544Z,24.05
2022-08-24T22:46:24.031Z,23.92
2022-08-24T22:48:53.697Z,23.93
2022-08-24T22:51:20.777Z,23.88
2022-08-24T22:53:47.256Z,23.93
2022-08-24T22:56:29.639Z,23.87
2022-08-24T22:58:56.856Z,23.81
2022-08-24T23:01:26.655Z,23.81
2022-08-24T23:03:55.284Z,23.75
2022-08-24T23:06:22.497Z,23.68
2022-08-24T23:08:49.669Z,23.71
2022-08-24T23:11:17.180Z,23.74
2022-08-24T23:13:44.642Z,23.71
2022-08-24T23:16:13.258Z,23.72
2022-08-24T23:19:02.860Z,23.62
2022-08-24T23:21:29.464Z,23.66
2022-08-24T23:23:55.998Z,23.60
2022-08-24T23:26:23.112Z,23.52
2022-08-24T23:28:50.377Z,23.44
2022-08-24T23:31:20.454Z,23.47
2022-08-24T23:33:47.332Z,23.40
2022-08-24T23:36:20.906Z,23.41
2022-08-24T23:38:50.455Z,23.45
2022-08-24T23:41:19.681Z,23.39
2022-08-24T23:43:46.361Z,23.28
2022-08-24T23:46:13.690Z,23.35
2022-08-24T23:48:41.240Z,23.32
2022-08-24T23:51:09.889Z,23.31
2022-08-24T23:53:36.898Z,23.31
2022-08-24T23:56:10.007Z,23.28
2022-08-24T23:58:39.404Z,23.21
